sensor_id;sensor_type;location;lat;lon;timestamp;P1;durP1;ratioP1;P2;durP2;ratioP2
31798;SDS011;18374;51.136;3.502;2023-05-28T00:00:09;30.02;;;12.32;;
31798;SDS011;18374;51.136;3.502;2023-05-28T00:02:45;30.17;;;12.07;;
31798;SDS011;18374;51.136;3.502;2023-05-28T00:05:13;32.78;;;13.05;;
31798;SDS011;18374;51.136;3.502;2023-05-28T00:07:41;32.95;;;12.75;;
31798;SDS011;18374;51.136;3.502;2023-05-28T00:10:09;34.30;;;13.57;;
31798;SDS011;18374;51.136;3.502;2023-05-28T00:12:37;39.00;;;14.07;;
31798;SDS011;18374;51.136;3.502;2023-05-28T00:15:05;29.20;;;12.15;;
31798;SDS011;18374;51.136;3.502;2023-05-28T00:17:34;35.25;;;14.55;;
31798;SDS011;18374;51.136;3.502;2023-05-28T00:20:03;34.78;;;13.98;;
31798;SDS011;18374;51.136;3.502;2023-05-28T00:22:32;38.13;;;14.82;;
31798;SDS011;18374;51.136;3.502;2023-05-28T00:25:00;34.55;;;12.98;;
31798;SDS011;18374;51.136;3.502;2023-05-28T00:27:27;36.05;;;14.25;;
31798;SDS011;18374;51.136;3.502;2023-05-28T00:29:55;40.75;;;14.40;;
31798;SDS011;18374;51.136;3.502;2023-05-28T00:32:23;33.50;;;13.90;;
31798;SDS011;18374;51.136;3.502;2023-05-28T00:34:51;30.13;;;13.50;;
31798;SDS011;18374;51.136;3.502;2023-05-28T00:37:18;28.33;;;13.13;;
31798;SDS011;18374;51.136;3.502;2023-05-28T00:39:47;46.05;;;15.00;;
31798;SDS011;18374;51.136;3.502;2023-05-28T00:42:14;34.47;;;15.15;;
31798;SDS011;18374;51.136;3.502;2023-05-28T00:44:42;38.55;;;14.77;;
31798;SDS011;18374;51.136;3.502;2023-05-28T00:47:11;35.70;;;14.20;;
31798;SDS011;18374;51.136;3.502;2023-05-28T00:49:41;35.08;;;15.35;;
31798;SDS011;18374;51.136;3.502;2023-05-28T00:52:09;31.83;;;13.95;;
31798;SDS011;18374;51.136;3.502;2023-05-28T00:54:38;44.72;;;14.98;;
31798;SDS011;18374;51.136;3.502;2023-05-28T00:57:05;33.75;;;16.02;;
31798;SDS011;18374;51.136;3.502;2023-05-28T00:59:34;37.85;;;15.02;;
31798;SDS011;18374;51.136;3.502;2023-05-28T01:02:03;42.83;;;16.50;;
31798;SDS011;18374;51.136;3.502;2023-05-28T01:04:31;35.42;;;14.90;;
31798;SDS011;18374;51.136;3.502;2023-05-28T01:07:00;40.58;;;15.98;;
31798;SDS011;18374;51.136;3.502;2023-05-28T01:09:28;36.65;;;15.05;;
31798;SDS011;18374;51.136;3.502;2023-05-28T01:11:56;37.75;;;16.17;;
31798;SDS011;18374;51.136;3.502;2023-05-28T01:14:25;47.50;;;15.93;;
31798;SDS011;18374;51.136;3.502;2023-05-28T01:16:53;45.35;;;16.15;;
31798;SDS011;18374;51.136;3.502;2023-05-28T01:19:21;38.78;;;16.17;;
31798;SDS011;18374;51.136;3.502;2023-05-28T01:22:05;36.75;;;15.82;;
31798;SDS011;18374;51.136;3.502;2023-05-28T01:24:33;37.58;;;16.50;;
31798;SDS011;18374;51.136;3.502;2023-05-28T01:27:06;42.47;;;15.93;;
31798;SDS011;18374;51.136;3.502;2023-05-28T01:29:34;45.38;;;17.23;;
31798;SDS011;18374;51.136;3.502;2023-05-28T01:32:03;46.22;;;16.73;;
31798;SDS011;18374;51.136;3.502;2023-05-28T01:34:31;41.60;;;16.35;;
31798;SDS011;18374;51.136;3.502;2023-05-28T01:37:00;48.17;;;17.40;;
31798;SDS011;18374;51.136;3.502;2023-05-28T01:39:33;38.58;;;16.20;;
31798;SDS011;18374;51.136;3.502;2023-05-28T01:42:10;44.45;;;17.33;;
31798;SDS011;18374;51.136;3.502;2023-05-28T01:44:39;40.80;;;17.45;;
31798;SDS011;18374;51.136;3.502;2023-05-28T01:47:12;35.22;;;16.25;;
31798;SDS011;18374;51.136;3.502;2023-05-28T01:49:42;47.97;;;16.88;;
31798;SDS011;18374;51.136;3.502;2023-05-28T01:52:12;41.67;;;16.42;;
31798;SDS011;18374;51.136;3.502;2023-05-28T01:54:43;43.45;;;17.23;;
31798;SDS011;18374;51.136;3.502;2023-05-28T01:57:11;50.88;;;17.05;;
31798;SDS011;18374;51.136;3.502;2023-05-28T01:59:39;42.13;;;17.60;;
31798;SDS011;18374;51.136;3.502;2023-05-28T02:02:08;39.88;;;16.95;;
31798;SDS011;18374;51.136;3.502;2023-05-28T02:04:37;39.13;;;17.27;;
31798;SDS011;18374;51.136;3.502;2023-05-28T02:07:05;46.25;;;17.52;;
31798;SDS011;18374;51.136;3.502;2023-05-28T02:09:33;43.67;;;17.67;;
31798;SDS011;18374;51.136;3.502;2023-05-28T02:12:01;51.45;;;17.90;;
31798;SDS011;18374;51.136;3.502;2023-05-28T02:14:30;52.58;;;18.42;;
31798;SDS011;18374;51.136;3.502;2023-05-28T02:16:58;43.10;;;18.38;;
31798;SDS011;18374;51.136;3.502;2023-05-28T02:19:26;48.65;;;18.92;;
31798;SDS011;18374;51.136;3.502;2023-05-28T02:21:55;41.70;;;17.73;;
31798;SDS011;18374;51.136;3.502;2023-05-28T02:24:25;54.45;;;19.58;;
31798;SDS011;18374;51.136;3.502;2023-05-28T02:26:53;46.67;;;19.45;;
31798;SDS011;18374;51.136;3.502;2023-05-28T02:29:23;41.50;;;18.77;;
31798;SDS011;18374;51.136;3.502;2023-05-28T02:31:52;55.58;;;18.98;;
31798;SDS011;18374;51.136;3.502;2023-05-28T02:34:19;45.92;;;19.00;;
31798;SDS011;18374;51.136;3.502;2023-05-28T02:36:47;45.67;;;19.02;;
31798;SDS011;18374;51.136;3.502;2023-05-28T02:39:15;43.85;;;19.08;;
31798;SDS011;18374;51.136;3.502;2023-05-28T02:41:43;47.58;;;18.13;;
31798;SDS011;18374;51.136;3.502;2023-05-28T02:44:11;55.20;;;20.10;;
31798;SDS011;18374;51.136;3.502;2023-05-28T02:46:39;53.53;;;18.65;;
31798;SDS011;18374;51.136;3.502;2023-05-28T02:49:07;48.67;;;20.17;;
31798;SDS011;18374;51.136;3.502;2023-05-28T02:51:35;47.30;;;18.85;;
31798;SDS011;18374;51.136;3.502;2023-05-28T02:54:19;45.97;;;18.58;;
31798;SDS011;18374;51.136;3.502;2023-05-28T02:56:47;43.08;;;18.98;;
31798;SDS011;18374;51.136;3.502;2023-05-28T02:59:15;50.58;;;20.55;;
31798;SDS011;18374;51.136;3.502;2023-05-28T03:01:42;40.13;;;18.60;;
31798;SDS011;18374;51.136;3.502;2023-05-28T03:04:11;48.08;;;18.88;;
31798;SDS011;18374;51.136;3.502;2023-05-28T03:06:39;46.78;;;20.13;;
31798;SDS011;18374;51.136;3.502;2023-05-28T03:09:08;48.55;;;19.33;;
31798;SDS011;18374;51.136;3.502;2023-05-28T03:11:36;45.88;;;18.23;;
31798;SDS011;18374;51.136;3.502;2023-05-28T03:14:04;46.85;;;19.13;;
31798;SDS011;18374;51.136;3.502;2023-05-28T03:16:32;40.30;;;18.02;;
31798;SDS011;18374;51.136;3.502;2023-05-28T03:19:12;47.90;;;19.45;;
31798;SDS011;18374;51.136;3.502;2023-05-28T03:21:40;50.10;;;20.17;;
31798;SDS011;18374;51.136;3.502;2023-05-28T03:24:09;45.67;;;18.05;;
31798;SDS011;18374;51.136;3.502;2023-05-28T03:26:43;50.28;;;19.38;;
31798;SDS011;18374;51.136;3.502;2023-05-28T03:29:15;52.85;;;19.08;;
31798;SDS011;18374;51.136;3.502;2023-05-28T03:32:16;45.80;;;19.83;;
31798;SDS011;18374;51.136;3.502;2023-05-28T03:34:44;52.95;;;19.85;;
31798;SDS011;18374;51.136;3.502;2023-05-28T03:37:13;51.50;;;20.13;;
31798;SDS011;18374;51.136;3.502;2023-05-28T03:39:42;54.95;;;19.63;;
31798;SDS011;18374;51.136;3.502;2023-05-28T03:42:11;39.28;;;19.05;;
31798;SDS011;18374;51.136;3.502;2023-05-28T03:44:39;51.50;;;19.92;;
31798;SDS011;18374;51.136;3.502;2023-05-28T03:47:07;54.70;;;19.13;;
31798;SDS011;18374;51.136;3.502;2023-05-28T03:49:35;49.58;;;20.83;;
31798;SDS011;18374;51.136;3.502;2023-05-28T03:52:03;52.00;;;20.27;;
31798;SDS011;18374;51.136;3.502;2023-05-28T03:54:41;47.38;;;20.70;;
31798;SDS011;18374;51.136;3.502;2023-05-28T03:57:09;55.50;;;20.67;;
31798;SDS011;18374;51.136;3.502;2023-05-28T03:59:38;47.33;;;19.02;;
31798;SDS011;18374;51.136;3.502;2023-05-28T04:02:06;49.10;;;19.30;;
31798;SDS011;18374;51.136;3.502;2023-05-28T04:04:34;47.67;;;19.13;;
31798;SDS011;18374;51.136;3.502;2023-05-28T04:07:02;50.00;;;20.05;;
31798;SDS011;18374;51.136;3.502;2023-05-28T04:09:31;44.42;;;19.23;;
31798;SDS011;18374;51.136;3.502;2023-05-28T04:11:58;44.20;;;19.95;;
31798;SDS011;18374;51.136;3.502;2023-05-28T04:14:27;48.17;;;19.25;;
31798;SDS011;18374;51.136;3.502;2023-05-28T04:16:55;46.28;;;18.83;;
31798;SDS011;18374;51.136;3.502;2023-05-28T04:19:25;48.90;;;20.48;;
31798;SDS011;18374;51.136;3.502;2023-05-28T04:21:52;53.60;;;20.35;;
31798;SDS011;18374;51.136;3.502;2023-05-28T04:24:20;48.30;;;19.67;;
31798;SDS011;18374;51.136;3.502;2023-05-28T04:26:48;47.65;;;18.45;;
31798;SDS011;18374;51.136;3.502;2023-05-28T04:29:16;47.90;;;19.38;;
31798;SDS011;18374;51.136;3.502;2023-05-28T04:31:44;48.35;;;19.77;;
31798;SDS011;18374;51.136;3.502;2023-05-28T04:34:14;47.80;;;19.35;;
31798;SDS011;18374;51.136;3.502;2023-05-28T04:36:44;55.95;;;19.67;;
31798;SDS011;18374;51.136;3.502;2023-05-28T04:39:12;46.63;;;18.88;;
31798;SDS011;18374;51.136;3.502;2023-05-28T04:41:40;54.78;;;20.85;;
31798;SDS011;18374;51.136;3.502;2023-05-28T04:44:10;46.88;;;18.83;;
31798;SDS011;18374;51.136;3.502;2023-05-28T04:46:42;49.63;;;19.92;;
31798;SDS011;18374;51.136;3.502;2023-05-28T04:49:12;52.88;;;19.42;;
31798;SDS011;18374;51.136;3.502;2023-05-28T04:51:40;55.70;;;19.83;;
31798;SDS011;18374;51.136;3.502;2023-05-28T04:54:08;49.35;;;18.30;;
31798;SDS011;18374;51.136;3.502;2023-05-28T04:56:36;50.58;;;19.13;;
31798;SDS011;18374;51.136;3.502;2023-05-28T04:59:04;46.65;;;18.35;;
31798;SDS011;18374;51.136;3.502;2023-05-28T05:01:36;40.45;;;18.25;;
31798;SDS011;18374;51.136;3.502;2023-05-28T05:04:06;51.78;;;18.40;;
31798;SDS011;18374;51.136;3.502;2023-05-28T05:06:36;54.42;;;19.10;;
31798;SDS011;18374;51.136;3.502;2023-05-28T05:09:04;46.25;;;18.02;;
31798;SDS011;18374;51.136;3.502;2023-05-28T05:11:32;48.00;;;17.90;;
31798;SDS011;18374;51.136;3.502;2023-05-28T05:14:02;54.38;;;19.67;;
31798;SDS011;18374;51.136;3.502;2023-05-28T05:16:30;48.08;;;18.98;;
31798;SDS011;18374;51.136;3.502;2023-05-28T05:18:58;46.75;;;18.60;;
31798;SDS011;18374;51.136;3.502;2023-05-28T05:21:27;44.30;;;19.13;;
31798;SDS011;18374;51.136;3.502;2023-05-28T05:23:54;47.60;;;19.05;;
31798;SDS011;18374;51.136;3.502;2023-05-28T05:26:23;54.35;;;18.42;;
31798;SDS011;18374;51.136;3.502;2023-05-28T05:28:52;43.28;;;19.42;;
31798;SDS011;18374;51.136;3.502;2023-05-28T05:31:20;57.15;;;18.45;;
31798;SDS011;18374;51.136;3.502;2023-05-28T05:33:48;53.75;;;20.05;;
31798;SDS011;18374;51.136;3.502;2023-05-28T05:39:21;49.92;;;17.83;;
31798;SDS011;18374;51.136;3.502;2023-05-28T05:42:03;44.33;;;17.85;;
31798;SDS011;18374;51.136;3.502;2023-05-28T05:44:37;45.77;;;19.47;;
31798;SDS011;18374;51.136;3.502;2023-05-28T05:47:07;43.30;;;18.40;;
31798;SDS011;18374;51.136;3.502;2023-05-28T05:49:35;44.70;;;17.80;;
31798;SDS011;18374;51.136;3.502;2023-05-28T05:52:03;46.65;;;18.55;;
31798;SDS011;18374;51.136;3.502;2023-05-28T05:54:35;38.42;;;17.05;;
31798;SDS011;18374;51.136;3.502;2023-05-28T05:57:02;50.50;;;17.20;;
31798;SDS011;18374;51.136;3.502;2023-05-28T05:59:32;46.15;;;18.55;;
31798;SDS011;18374;51.136;3.502;2023-05-28T06:02:00;44.20;;;18.90;;
31798;SDS011;18374;51.136;3.502;2023-05-28T06:04:30;40.55;;;18.13;;
31798;SDS011;18374;51.136;3.502;2023-05-28T06:07:33;40.25;;;17.23;;
31798;SDS011;18374;51.136;3.502;2023-05-28T06:10:16;45.40;;;16.13;;
31798;SDS011;18374;51.136;3.502;2023-05-28T06:12:44;45.55;;;17.45;;
31798;SDS011;18374;51.136;3.502;2023-05-28T06:15:12;38.65;;;15.95;;
31798;SDS011;18374;51.136;3.502;2023-05-28T06:17:41;39.67;;;15.35;;
31798;SDS011;18374;51.136;3.502;2023-05-28T06:20:08;39.80;;;15.93;;
31798;SDS011;18374;51.136;3.502;2023-05-28T06:22:38;32.78;;;14.85;;
31798;SDS011;18374;51.136;3.502;2023-05-28T06:25:06;35.67;;;15.43;;
31798;SDS011;18374;51.136;3.502;2023-05-28T06:27:37;35.20;;;15.48;;
31798;SDS011;18374;51.136;3.502;2023-05-28T06:30:07;37.58;;;15.18;;
31798;SDS011;18374;51.136;3.502;2023-05-28T06:32:37;35.78;;;14.25;;
31798;SDS011;18374;51.136;3.502;2023-05-28T06:35:05;38.33;;;14.75;;
31798;SDS011;18374;51.136;3.502;2023-05-28T06:37:35;31.48;;;13.15;;
31798;SDS011;18374;51.136;3.502;2023-05-28T06:40:07;39.45;;;15.32;;
31798;SDS011;18374;51.136;3.502;2023-05-28T06:42:38;33.60;;;14.48;;
31798;SDS011;18374;51.136;3.502;2023-05-28T06:45:15;31.90;;;13.80;;
31798;SDS011;18374;51.136;3.502;2023-05-28T06:47:44;27.67;;;12.80;;
31798;SDS011;18374;51.136;3.502;2023-05-28T06:50:16;32.55;;;13.85;;
31798;SDS011;18374;51.136;3.502;2023-05-28T06:52:50;34.30;;;14.25;;
31798;SDS011;18374;51.136;3.502;2023-05-28T06:55:18;29.30;;;13.38;;
31798;SDS011;18374;51.136;3.502;2023-05-28T06:58:09;29.45;;;12.57;;
31798;SDS011;18374;51.136;3.502;2023-05-28T07:01:12;32.40;;;13.73;;
31798;SDS011;18374;51.136;3.502;2023-05-28T07:03:59;29.35;;;12.68;;
31798;SDS011;18374;51.136;3.502;2023-05-28T07:06:46;25.63;;;12.63;;
31798;SDS011;18374;51.136;3.502;2023-05-28T07:09:29;26.63;;;11.98;;
31798;SDS011;18374;51.136;3.502;2023-05-28T07:11:57;23.25;;;11.98;;
31798;SDS011;18374;51.136;3.502;2023-05-28T07:14:25;33.38;;;12.77;;
31798;SDS011;18374;51.136;3.502;2023-05-28T07:16:53;30.05;;;12.60;;
31798;SDS011;18374;51.136;3.502;2023-05-28T07:19:21;28.50;;;12.30;;
31798;SDS011;18374;51.136;3.502;2023-05-28T07:21:49;31.50;;;12.15;;
31798;SDS011;18374;51.136;3.502;2023-05-28T07:24:17;27.70;;;11.52;;
31798;SDS011;18374;51.136;3.502;2023-05-28T07:26:45;25.35;;;11.25;;
31798;SDS011;18374;51.136;3.502;2023-05-28T07:29:13;24.90;;;11.07;;
31798;SDS011;18374;51.136;3.502;2023-05-28T07:31:45;22.48;;;10.98;;
31798;SDS011;18374;51.136;3.502;2023-05-28T07:34:14;23.30;;;10.70;;
31798;SDS011;18374;51.136;3.502;2023-05-28T07:36:43;23.85;;;10.45;;
31798;SDS011;18374;51.136;3.502;2023-05-28T07:39:12;23.85;;;11.05;;
31798;SDS011;18374;51.136;3.502;2023-05-28T07:41:41;27.65;;;10.30;;
31798;SDS011;18374;51.136;3.502;2023-05-28T07:44:22;24.95;;;10.82;;
31798;SDS011;18374;51.136;3.502;2023-05-28T07:46:51;28.77;;;10.35;;
31798;SDS011;18374;51.136;3.502;2023-05-28T07:49:31;22.90;;;9.60;;
31798;SDS011;18374;51.136;3.502;2023-05-28T07:51:59;18.52;;;8.18;;
31798;SDS011;18374;51.136;3.502;2023-05-28T07:54:30;16.65;;;8.13;;
31798;SDS011;18374;51.136;3.502;2023-05-28T07:56:58;25.13;;;9.43;;
31798;SDS011;18374;51.136;3.502;2023-05-28T07:59:34;21.33;;;8.00;;
31798;SDS011;18374;51.136;3.502;2023-05-28T08:02:03;17.60;;;7.65;;
31798;SDS011;18374;51.136;3.502;2023-05-28T08:04:31;21.67;;;8.00;;
31798;SDS011;18374;51.136;3.502;2023-05-28T08:07:00;25.42;;;7.80;;
31798;SDS011;18374;51.136;3.502;2023-05-28T08:09:29;21.10;;;7.50;;
31798;SDS011;18374;51.136;3.502;2023-05-28T08:11:59;15.23;;;7.13;;
31798;SDS011;18374;51.136;3.502;2023-05-28T08:14:31;15.35;;;7.85;;
31798;SDS011;18374;51.136;3.502;2023-05-28T08:17:05;27.98;;;7.97;;
31798;SDS011;18374;51.136;3.502;2023-05-28T08:19:59;14.07;;;6.13;;
31798;SDS011;18374;51.136;3.502;2023-05-28T08:22:46;18.02;;;6.60;;
31798;SDS011;18374;51.136;3.502;2023-05-28T08:25:15;15.35;;;6.35;;
31798;SDS011;18374;51.136;3.502;2023-05-28T08:27:44;17.27;;;6.38;;
31798;SDS011;18374;51.136;3.502;2023-05-28T08:30:12;14.70;;;6.55;;
31798;SDS011;18374;51.136;3.502;2023-05-28T08:35:16;17.48;;;6.20;;
31798;SDS011;18374;51.136;3.502;2023-05-28T08:37:44;15.90;;;6.75;;
31798;SDS011;18374;51.136;3.502;2023-05-28T08:40:41;21.13;;;5.97;;
31798;SDS011;18374;51.136;3.502;2023-05-28T08:43:14;13.65;;;5.68;;
31798;SDS011;18374;51.136;3.502;2023-05-28T08:45:42;14.32;;;5.93;;
31798;SDS011;18374;51.136;3.502;2023-05-28T08:48:11;15.93;;;5.70;;
31798;SDS011;18374;51.136;3.502;2023-05-28T08:50:41;15.18;;;5.75;;
31798;SDS011;18374;51.136;3.502;2023-05-28T08:53:26;13.65;;;4.25;;
31798;SDS011;18374;51.136;3.502;2023-05-28T08:56:01;6.47;;;3.60;;
31798;SDS011;18374;51.136;3.502;2023-05-28T08:58:33;14.18;;;4.40;;
31798;SDS011;18374;51.136;3.502;2023-05-28T09:01:05;13.18;;;4.10;;
31798;SDS011;18374;51.136;3.502;2023-05-28T09:03:37;9.88;;;4.03;;
31798;SDS011;18374;51.136;3.502;2023-05-28T09:06:18;9.43;;;3.97;;
31798;SDS011;18374;51.136;3.502;2023-05-28T09:08:48;12.88;;;4.25;;
31798;SDS011;18374;51.136;3.502;2023-05-28T09:11:42;10.20;;;3.67;;
31798;SDS011;18374;51.136;3.502;2023-05-28T09:14:10;11.27;;;3.38;;
31798;SDS011;18374;51.136;3.502;2023-05-28T09:16:41;12.10;;;3.00;;
31798;SDS011;18374;51.136;3.502;2023-05-28T09:19:16;9.40;;;3.40;;
31798;SDS011;18374;51.136;3.502;2023-05-28T09:24:56;6.68;;;3.08;;
31798;SDS011;18374;51.136;3.502;2023-05-28T09:27:35;9.15;;;3.78;;
31798;SDS011;18374;51.136;3.502;2023-05-28T09:30:04;8.07;;;3.63;;
31798;SDS011;18374;51.136;3.502;2023-05-28T09:32:36;11.15;;;3.72;;
31798;SDS011;18374;51.136;3.502;2023-05-28T09:35:04;8.52;;;3.28;;
31798;SDS011;18374;51.136;3.502;2023-05-28T09:37:34;11.73;;;3.60;;
31798;SDS011;18374;51.136;3.502;2023-05-28T09:40:06;12.20;;;3.50;;
31798;SDS011;18374;51.136;3.502;2023-05-28T09:42:37;12.90;;;3.20;;
31798;SDS011;18374;51.136;3.502;2023-05-28T09:45:08;10.27;;;3.78;;
31798;SDS011;18374;51.136;3.502;2023-05-28T09:47:41;10.00;;;3.55;;
31798;SDS011;18374;51.136;3.502;2023-05-28T09:50:13;9.43;;;3.00;;
31798;SDS011;18374;51.136;3.502;2023-05-28T09:52:45;7.63;;;3.03;;
31798;SDS011;18374;51.136;3.502;2023-05-28T09:55:16;12.15;;;3.75;;
31798;SDS011;18374;51.136;3.502;2023-05-28T09:57:46;19.70;;;4.22;;
31798;SDS011;18374;51.136;3.502;2023-05-28T10:00:31;9.25;;;3.47;;
31798;SDS011;18374;51.136;3.502;2023-05-28T10:05:42;10.13;;;3.38;;
31798;SDS011;18374;51.136;3.502;2023-05-28T10:08:13;10.95;;;3.50;;
31798;SDS011;18374;51.136;3.502;2023-05-28T10:10:44;8.30;;;3.60;;
31798;SDS011;18374;51.136;3.502;2023-05-28T10:13:17;11.38;;;3.83;;
31798;SDS011;18374;51.136;3.502;2023-05-28T10:15:44;9.82;;;3.63;;
31798;SDS011;18374;51.136;3.502;2023-05-28T10:18:13;12.68;;;3.70;;
31798;SDS011;18374;51.136;3.502;2023-05-28T10:20:42;11.35;;;3.35;;
31798;SDS011;18374;51.136;3.502;2023-05-28T10:23:10;12.63;;;3.40;;
31798;SDS011;18374;51.136;3.502;2023-05-28T10:25:39;14.93;;;3.97;;
31798;SDS011;18374;51.136;3.502;2023-05-28T10:28:07;11.70;;;3.70;;
31798;SDS011;18374;51.136;3.502;2023-05-28T10:30:36;10.10;;;3.17;;
31798;SDS011;18374;51.136;3.502;2023-05-28T10:33:05;14.27;;;4.43;;
31798;SDS011;18374;51.136;3.502;2023-05-28T10:35:37;8.02;;;3.58;;
31798;SDS011;18374;51.136;3.502;2023-05-28T10:38:24;10.98;;;4.18;;
31798;SDS011;18374;51.136;3.502;2023-05-28T10:41:02;14.23;;;4.68;;
31798;SDS011;18374;51.136;3.502;2023-05-28T10:43:45;15.40;;;4.32;;
31798;SDS011;18374;51.136;3.502;2023-05-28T10:51:51;11.65;;;4.43;;
31798;SDS011;18374;51.136;3.502;2023-05-28T11:02:33;12.82;;;4.50;;
31798;SDS011;18374;51.136;3.502;2023-05-28T11:05:02;12.85;;;4.47;;
31798;SDS011;18374;51.136;3.502;2023-05-28T11:07:36;15.60;;;4.45;;
31798;SDS011;18374;51.136;3.502;2023-05-28T11:10:09;11.95;;;4.72;;
31798;SDS011;18374;51.136;3.502;2023-05-28T11:12:42;12.18;;;5.10;;
31798;SDS011;18374;51.136;3.502;2023-05-28T11:15:14;14.75;;;5.55;;
31798;SDS011;18374;51.136;3.502;2023-05-28T11:17:43;12.73;;;4.88;;
31798;SDS011;18374;51.136;3.502;2023-05-28T11:20:16;18.50;;;5.10;;
31798;SDS011;18374;51.136;3.502;2023-05-28T11:22:49;12.18;;;4.97;;
31798;SDS011;18374;51.136;3.502;2023-05-28T11:25:17;14.38;;;4.93;;
31798;SDS011;18374;51.136;3.502;2023-05-28T11:27:47;10.90;;;4.68;;
31798;SDS011;18374;51.136;3.502;2023-05-28T11:30:18;10.80;;;4.43;;
31798;SDS011;18374;51.136;3.502;2023-05-28T11:32:47;11.48;;;4.13;;
31798;SDS011;18374;51.136;3.502;2023-05-28T11:35:16;9.38;;;4.95;;
31798;SDS011;18374;51.136;3.502;2023-05-28T11:37:44;12.77;;;5.18;;
31798;SDS011;18374;51.136;3.502;2023-05-28T11:40:13;11.45;;;4.88;;
31798;SDS011;18374;51.136;3.502;2023-05-28T11:42:42;14.70;;;4.63;;
31798;SDS011;18374;51.136;3.502;2023-05-28T11:45:12;17.63;;;3.85;;
31798;SDS011;18374;51.136;3.502;2023-05-28T11:47:40;11.30;;;4.18;;
31798;SDS011;18374;51.136;3.502;2023-05-28T11:50:10;11.27;;;3.50;;
31798;SDS011;18374;51.136;3.502;2023-05-28T11:52:42;18.05;;;4.82;;
31798;SDS011;18374;51.136;3.502;2023-05-28T11:55:11;6.75;;;3.40;;
31798;SDS011;18374;51.136;3.502;2023-05-28T11:57:50;7.60;;;3.47;;
31798;SDS011;18374;51.136;3.502;2023-05-28T12:00:28;12.18;;;3.30;;
31798;SDS011;18374;51.136;3.502;2023-05-28T12:03:03;8.43;;;3.20;;
31798;SDS011;18374;51.136;3.502;2023-05-28T12:05:37;11.57;;;3.55;;
31798;SDS011;18374;51.136;3.502;2023-05-28T12:08:05;9.73;;;3.28;;
31798;SDS011;18374;51.136;3.502;2023-05-28T12:10:33;9.25;;;3.38;;
31798;SDS011;18374;51.136;3.502;2023-05-28T12:13:01;11.02;;;3.38;;
31798;SDS011;18374;51.136;3.502;2023-05-28T12:15:29;10.63;;;3.45;;
31798;SDS011;18374;51.136;3.502;2023-05-28T12:17:57;10.35;;;3.35;;
31798;SDS011;18374;51.136;3.502;2023-05-28T12:20:29;8.25;;;3.13;;
31798;SDS011;18374;51.136;3.502;2023-05-28T12:23:09;10.75;;;3.72;;
31798;SDS011;18374;51.136;3.502;2023-05-28T12:28:11;9.13;;;3.35;;
31798;SDS011;18374;51.136;3.502;2023-05-28T12:30:41;8.10;;;3.00;;
31798;SDS011;18374;51.136;3.502;2023-05-28T12:33:11;12.98;;;4.13;;
31798;SDS011;18374;51.136;3.502;2023-05-28T12:35:39;13.43;;;5.47;;
31798;SDS011;18374;51.136;3.502;2023-05-28T12:38:07;13.27;;;5.13;;
31798;SDS011;18374;51.136;3.502;2023-05-28T12:40:35;19.20;;;5.97;;
31798;SDS011;18374;51.136;3.502;2023-05-28T12:43:03;11.93;;;5.20;;
31798;SDS011;18374;51.136;3.502;2023-05-28T12:45:31;13.43;;;5.35;;
31798;SDS011;18374;51.136;3.502;2023-05-28T12:47:59;16.13;;;4.78;;
31798;SDS011;18374;51.136;3.502;2023-05-28T12:50:27;11.82;;;4.90;;
31798;SDS011;18374;51.136;3.502;2023-05-28T12:52:55;15.40;;;5.60;;
31798;SDS011;18374;51.136;3.502;2023-05-28T12:55:23;12.82;;;4.47;;
31798;SDS011;18374;51.136;3.502;2023-05-28T12:57:51;10.57;;;4.68;;
31798;SDS011;18374;51.136;3.502;2023-05-28T13:00:19;11.02;;;4.30;;
31798;SDS011;18374;51.136;3.502;2023-05-28T13:02:47;12.65;;;4.70;;
31798;SDS011;18374;51.136;3.502;2023-05-28T13:05:15;11.48;;;4.10;;
31798;SDS011;18374;51.136;3.502;2023-05-28T13:07:43;10.65;;;4.10;;
31798;SDS011;18374;51.136;3.502;2023-05-28T13:10:12;15.68;;;4.93;;
31798;SDS011;18374;51.136;3.502;2023-05-28T13:12:41;14.63;;;4.43;;
31798;SDS011;18374;51.136;3.502;2023-05-28T13:15:09;12.98;;;5.00;;
31798;SDS011;18374;51.136;3.502;2023-05-28T13:17:37;13.35;;;5.18;;
31798;SDS011;18374;51.136;3.502;2023-05-28T13:20:05;17.58;;;6.95;;
31798;SDS011;18374;51.136;3.502;2023-05-28T13:22:38;18.13;;;5.63;;
31798;SDS011;18374;51.136;3.502;2023-05-28T13:25:06;14.23;;;5.68;;
31798;SDS011;18374;51.136;3.502;2023-05-28T13:27:35;16.77;;;5.75;;
31798;SDS011;18374;51.136;3.502;2023-05-28T13:30:03;15.18;;;6.30;;
31798;SDS011;18374;51.136;3.502;2023-05-28T13:32:32;20.63;;;6.68;;
31798;SDS011;18374;51.136;3.502;2023-05-28T13:34:59;20.90;;;6.30;;
31798;SDS011;18374;51.136;3.502;2023-05-28T13:37:27;12.95;;;6.00;;
31798;SDS011;18374;51.136;3.502;2023-05-28T13:39:55;14.10;;;5.97;;
31798;SDS011;18374;51.136;3.502;2023-05-28T13:42:24;14.93;;;4.80;;
31798;SDS011;18374;51.136;3.502;2023-05-28T13:44:52;16.10;;;5.68;;
31798;SDS011;18374;51.136;3.502;2023-05-28T13:47:20;15.23;;;5.72;;
31798;SDS011;18374;51.136;3.502;2023-05-28T13:49:48;20.33;;;6.97;;
31798;SDS011;18374;51.136;3.502;2023-05-28T13:52:16;15.65;;;6.20;;
31798;SDS011;18374;51.136;3.502;2023-05-28T13:54:44;17.70;;;5.95;;
31798;SDS011;18374;51.136;3.502;2023-05-28T13:57:12;18.40;;;6.05;;
31798;SDS011;18374;51.136;3.502;2023-05-28T13:59:39;18.83;;;6.07;;
31798;SDS011;18374;51.136;3.502;2023-05-28T14:02:07;14.23;;;5.63;;
31798;SDS011;18374;51.136;3.502;2023-05-28T14:04:35;19.20;;;5.75;;
31798;SDS011;18374;51.136;3.502;2023-05-28T14:07:03;19.27;;;6.07;;
31798;SDS011;18374;51.136;3.502;2023-05-28T14:09:31;17.08;;;5.40;;
31798;SDS011;18374;51.136;3.502;2023-05-28T14:11:59;18.08;;;5.30;;
31798;SDS011;18374;51.136;3.502;2023-05-28T14:14:31;19.60;;;5.63;;
31798;SDS011;18374;51.136;3.502;2023-05-28T14:16:58;16.08;;;5.15;;
31798;SDS011;18374;51.136;3.502;2023-05-28T14:19:26;15.57;;;6.10;;
31798;SDS011;18374;51.136;3.502;2023-05-28T14:21:54;13.25;;;5.63;;
31798;SDS011;18374;51.136;3.502;2023-05-28T14:24:22;12.75;;;5.78;;
31798;SDS011;18374;51.136;3.502;2023-05-28T14:26:50;16.55;;;6.07;;
31798;SDS011;18374;51.136;3.502;2023-05-28T14:29:18;18.73;;;5.97;;
31798;SDS011;18374;51.136;3.502;2023-05-28T14:31:45;19.23;;;5.30;;
31798;SDS011;18374;51.136;3.502;2023-05-28T14:34:13;14.77;;;5.50;;
31798;SDS011;18374;51.136;3.502;2023-05-28T14:36:41;11.10;;;5.20;;
31798;SDS011;18374;51.136;3.502;2023-05-28T14:39:09;26.48;;;6.07;;
31798;SDS011;18374;51.136;3.502;2023-05-28T14:41:36;17.27;;;5.45;;
31798;SDS011;18374;51.136;3.502;2023-05-28T14:44:04;16.35;;;5.20;;
31798;SDS011;18374;51.136;3.502;2023-05-28T14:46:32;14.55;;;5.25;;
31798;SDS011;18374;51.136;3.502;2023-05-28T14:49:00;19.98;;;5.25;;
31798;SDS011;18374;51.136;3.502;2023-05-28T14:51:28;16.45;;;5.43;;
31798;SDS011;18374;51.136;3.502;2023-05-28T14:53:55;15.30;;;5.80;;
31798;SDS011;18374;51.136;3.502;2023-05-28T14:56:23;12.68;;;4.93;;
31798;SDS011;18374;51.136;3.502;2023-05-28T14:58:53;16.85;;;5.05;;
31798;SDS011;18374;51.136;3.502;2023-05-28T15:01:20;15.70;;;5.00;;
31798;SDS011;18374;51.136;3.502;2023-05-28T15:03:48;13.65;;;4.65;;
31798;SDS011;18374;51.136;3.502;2023-05-28T15:06:16;13.52;;;5.20;;
31798;SDS011;18374;51.136;3.502;2023-05-28T15:08:44;13.45;;;5.47;;
31798;SDS011;18374;51.136;3.502;2023-05-28T15:11:13;15.70;;;5.70;;
31798;SDS011;18374;51.136;3.502;2023-05-28T15:13:42;12.15;;;4.75;;